sensor_id;sensor_type;location;lat;lon;timestamp;pressure;altitude;pressure_sealevel;temperature;humidity
62508;BME280;48556;51.972;4.624;2023-02-12T00:02:23;103848.22;;;13.81;59.86
62508;BME280;48556;51.972;4.624;2023-02-12T00:04:49;103849.03;;;13.78;59.84
62508;BME280;48556;51.972;4.624;2023-02-12T00:07:15;103849.06;;;13.80;59.86
62508;BME280;48556;51.972;4.624;2023-02-12T00:09:40;103849.94;;;13.77;60.03
62508;BME280;48556;51.972;4.624;2023-02-12T00:12:06;103857.13;;;13.84;59.84
62508;BME280;48556;51.972;4.624;2023-02-12T00:14:32;103855.22;;;13.77;59.82
62508;BME280;48556;51.972;4.624;2023-02-12T00:16:59;103855.88;;;13.68;60.30
62508;BME280;48556;51.972;4.624;2023-02-12T00:19:26;103857.78;;;13.76;60.16
62508;BME280;48556;51.972;4.624;2023-02-12T00:21:52;103850.72;;;13.73;60.19
62508;BME280;48556;51.972;4.624;2023-02-12T00:24:18;103848.06;;;13.73;60.27
62508;BME280;48556;51.972;4.624;2023-02-12T00:26:45;103855.13;;;13.74;60.29
62508;BME280;48556;51.972;4.624;2023-02-12T00:29:13;103846.41;;;13.78;60.06
62508;BME280;48556;51.972;4.624;2023-02-12T00:31:40;103844.69;;;13.80;59.92
62508;BME280;48556;51.972;4.624;2023-02-12T00:34:06;103847.13;;;13.71;60.15
62508;BME280;48556;51.972;4.624;2023-02-12T00:36:34;103845.28;;;13.68;60.41
62508;BME280;48556;51.972;4.624;2023-02-12T00:38:59;103843.63;;;13.72;60.10
62508;BME280;48556;51.972;4.624;2023-02-12T00:41:25;103846.41;;;13.78;59.92
62508;BME280;48556;51.972;4.624;2023-02-12T00:43:52;103841.81;;;13.70;60.03
62508;BME280;48556;51.972;4.624;2023-02-12T00:46:20;103851.59;;;13.74;59.77
62508;BME280;48556;51.972;4.624;2023-02-12T00:48:49;103853.25;;;13.70;59.93
62508;BME280;48556;51.972;4.624;2023-02-12T00:51:14;103843.66;;;13.74;59.93
62508;BME280;48556;51.972;4.624;2023-02-12T00:53:40;103840.16;;;13.75;59.79
62508;BME280;48556;51.972;4.624;2023-02-12T00:56:06;103845.31;;;13.70;59.93
62508;BME280;48556;51.972;4.624;2023-02-12T00:58:32;103845.31;;;13.70;59.88
62508;BME280;48556;51.972;4.624;2023-02-12T01:00:57;103842.63;;;13.67;59.76
62508;BME280;48556;51.972;4.624;2023-02-12T01:03:23;103837.03;;;13.55;60.17
62508;BME280;48556;51.972;4.624;2023-02-12T01:05:49;103838.78;;;13.53;59.99
62508;BME280;48556;51.972;4.624;2023-02-12T01:08:16;103834.38;;;13.53;59.99
62508;BME280;48556;51.972;4.624;2023-02-12T01:10:42;103842.13;;;13.45;60.24
62508;BME280;48556;51.972;4.624;2023-02-12T01:13:13;103842.03;;;13.42;60.66
62508;BME280;48556;51.972;4.624;2023-02-12T01:15:40;103841.34;;;13.49;60.53
62508;BME280;48556;51.972;4.624;2023-02-12T01:18:06;103831.72;;;13.53;60.24
62508;BME280;48556;51.972;4.624;2023-02-12T01:20:32;103833.19;;;13.40;60.84
62508;BME280;48556;51.972;4.624;2023-02-12T01:22:58;103833.31;;;13.46;60.77
62508;BME280;48556;51.972;4.624;2023-02-12T01:25:26;103839.34;;;13.41;60.95
62508;BME280;48556;51.972;4.624;2023-02-12T01:27:52;103839.47;;;13.44;60.92
62508;BME280;48556;51.972;4.624;2023-02-12T01:30:18;103842.00;;;13.41;61.03
62508;BME280;48556;51.972;4.624;2023-02-12T01:32:47;103846.47;;;13.43;60.69
62508;BME280;48556;51.972;4.624;2023-02-12T01:35:12;103840.28;;;13.41;60.85
62508;BME280;48556;51.972;4.624;2023-02-12T01:37:38;103849.41;;;13.56;60.33
62508;BME280;48556;51.972;4.624;2023-02-12T01:40:07;103848.41;;;13.50;60.54
62508;BME280;48556;51.972;4.624;2023-02-12T01:42:33;103848.22;;;13.43;61.01
62508;BME280;48556;51.972;4.624;2023-02-12T01:47:40;103840.19;;;13.38;60.88
62508;BME280;48556;51.972;4.624;2023-02-12T01:50:11;103840.09;;;13.35;60.99
62508;BME280;48556;51.972;4.624;2023-02-12T01:52:40;103849.75;;;13.34;61.12
62508;BME280;48556;51.972;4.624;2023-02-12T01:55:09;103846.41;;;13.40;60.81
62508;BME280;48556;51.972;4.624;2023-02-12T01:57:39;103843.69;;;13.37;60.80
62508;BME280;48556;51.972;4.624;2023-02-12T02:00:10;103843.50;;;13.31;61.03
62508;BME280;48556;51.972;4.624;2023-02-12T02:02:38;103850.56;;;13.32;60.71
62508;BME280;48556;51.972;4.624;2023-02-12T02:05:04;103847.91;;;13.30;60.84
62508;BME280;48556;51.972;4.624;2023-02-12T02:07:30;103850.47;;;13.27;60.69
62508;BME280;48556;51.972;4.624;2023-02-12T02:09:56;103845.22;;;13.29;60.29
62508;BME280;48556;51.972;4.624;2023-02-12T02:12:24;103850.50;;;13.29;60.59
62508;BME280;48556;51.972;4.624;2023-02-12T02:15:10;103841.81;;;13.34;60.34
62508;BME280;48556;51.972;4.624;2023-02-12T02:20:56;103855.84;;;13.32;60.53
62508;BME280;48556;51.972;4.624;2023-02-12T02:32:36;103849.38;;;13.19;60.31
62508;BME280;48556;51.972;4.624;2023-02-12T02:35:37;103854.66;;;13.19;60.31
62508;BME280;48556;51.972;4.624;2023-02-12T02:38:30;103849.38;;;13.19;60.14
62508;BME280;48556;51.972;4.624;2023-02-12T02:41:08;103835.75;;;13.02;60.47
62508;BME280;48556;51.972;4.624;2023-02-12T02:43:44;103839.41;;;13.09;60.39
62508;BME280;48556;51.972;4.624;2023-02-12T02:46:22;103840.50;;;13.17;60.34
62508;BME280;48556;51.972;4.624;2023-02-12T02:48:57;103839.25;;;13.01;60.79
62508;BME280;48556;51.972;4.624;2023-02-12T02:51:29;103838.47;;;13.05;60.58
62508;BME280;48556;51.972;4.624;2023-02-12T02:54:05;103844.84;;;13.13;60.47
62508;BME280;48556;51.972;4.624;2023-02-12T02:56:36;103838.59;;;13.11;60.65
62508;BME280;48556;51.972;4.624;2023-02-12T02:59:39;103838.59;;;13.11;60.65
62508;BME280;48556;51.972;4.624;2023-02-12T03:02:26;103832.34;;;13.06;60.90
62508;BME280;48556;51.972;4.624;2023-02-12T03:04:58;103834.28;;;13.13;60.69
62508;BME280;48556;51.972;4.624;2023-02-12T03:08:19;103828.19;;;13.16;60.55
62508;BME280;48556;51.972;4.624;2023-02-12T03:10:46;103823.63;;;13.10;60.47
62508;BME280;48556;51.972;4.624;2023-02-12T03:13:47;103833.28;;;13.10;60.54
62508;BME280;48556;51.972;4.624;2023-02-12T03:16:22;103830.53;;;13.05;60.66
62508;BME280;48556;51.972;4.624;2023-02-12T03:18:54;103828.19;;;13.16;60.51
62508;BME280;48556;51.972;4.624;2023-02-12T03:21:31;103827.00;;;13.05;60.93
62508;BME280;48556;51.972;4.624;2023-02-12T03:27:18;103827.06;;;13.06;60.73
62508;BME280;48556;51.972;4.624;2023-02-12T03:29:45;103825.25;;;13.05;60.71
62508;BME280;48556;51.972;4.624;2023-02-12T03:35:13;103827.53;;;12.91;61.36
62508;BME280;48556;51.972;4.624;2023-02-12T03:37:57;103831.31;;;13.01;60.69
62508;BME280;48556;51.972;4.624;2023-02-12T03:40:33;103819.78;;;12.99;60.93
62508;BME280;48556;51.972;4.624;2023-02-12T03:43:26;103821.63;;;13.02;60.65
62508;BME280;48556;51.972;4.624;2023-02-12T03:45:55;103830.47;;;13.02;60.74
62508;BME280;48556;51.972;4.624;2023-02-12T03:51:05;103822.56;;;13.04;60.65
62508;BME280;48556;51.972;4.624;2023-02-12T03:53:35;103822.53;;;13.02;60.72
62508;BME280;48556;51.972;4.624;2023-02-12T03:56:29;103826.88;;;13.00;61.02
62508;BME280;48556;51.972;4.624;2023-02-12T03:58:56;103828.81;;;13.07;60.54
62508;BME280;48556;51.972;4.624;2023-02-12T04:01:22;103833.44;;;13.14;60.16
62508;BME280;48556;51.972;4.624;2023-02-12T04:03:48;103824.56;;;13.12;60.07
62508;BME280;48556;51.972;4.624;2023-02-12T04:06:26;103835.16;;;13.14;60.20
62508;BME280;48556;51.972;4.624;2023-02-12T04:08:56;103839.31;;;13.04;60.64
62508;BME280;48556;51.972;4.624;2023-02-12T04:14:19;103835.81;;;13.05;60.57
62508;BME280;48556;51.972;4.624;2023-02-12T04:17:02;103843.81;;;13.08;60.35
62508;BME280;48556;51.972;4.624;2023-02-12T04:29:02;103854.41;;;13.10;60.15
62508;BME280;48556;51.972;4.624;2023-02-12T04:31:51;103852.56;;;13.06;60.12
62508;BME280;48556;51.972;4.624;2023-02-12T04:37:50;103866.41;;;12.97;60.76
62508;BME280;48556;51.972;4.624;2023-02-12T04:40:18;103869.22;;;13.03;60.49
62508;BME280;48556;51.972;4.624;2023-02-12T04:42:49;103863.84;;;13.00;60.84
62508;BME280;48556;51.972;4.624;2023-02-12T04:45:21;103861.22;;;13.00;60.97
62508;BME280;48556;51.972;4.624;2023-02-12T04:47:48;103863.81;;;12.98;60.81
62508;BME280;48556;51.972;4.624;2023-02-12T04:50:15;103863.00;;;13.01;60.83
62508;BME280;48556;51.972;4.624;2023-02-12T04:52:40;103869.06;;;12.97;60.93
62508;BME280;48556;51.972;4.624;2023-02-12T04:55:06;103866.50;;;13.00;60.60
62508;BME280;48556;51.972;4.624;2023-02-12T04:57:32;103874.47;;;13.02;60.47
62508;BME280;48556;51.972;4.624;2023-02-12T04:59:57;103868.31;;;13.03;60.40
62508;BME280;48556;51.972;4.624;2023-02-12T05:02:23;103862.78;;;12.93;60.65
62508;BME280;48556;51.972;4.624;2023-02-12T05:04:49;103868.78;;;12.86;61.00
62508;BME280;48556;51.972;4.624;2023-02-12T05:07:15;103866.34;;;12.94;60.90
62508;BME280;48556;51.972;4.624;2023-02-12T05:09:41;103862.69;;;12.89;61.07
62508;BME280;48556;51.972;4.624;2023-02-12T05:12:07;103859.28;;;12.93;61.14
62508;BME280;48556;51.972;4.624;2023-02-12T05:14:33;103860.28;;;12.98;60.85
62508;BME280;48556;51.972;4.624;2023-02-12T05:16:58;103855.84;;;12.97;60.90
62508;BME280;48556;51.972;4.624;2023-02-12T05:19:24;103855.09;;;13.01;61.05
62508;BME280;48556;51.972;4.624;2023-02-12T05:21:50;103861.13;;;12.97;61.26
62508;BME280;48556;51.972;4.624;2023-02-12T05:24:16;103867.97;;;12.89;61.24
62508;BME280;48556;51.972;4.624;2023-02-12T05:26:43;103860.03;;;12.89;61.13
62508;BME280;48556;51.972;4.624;2023-02-12T05:29:08;103854.66;;;12.84;61.27
62508;BME280;48556;51.972;4.624;2023-02-12T05:31:34;103857.44;;;12.90;60.99
62508;BME280;48556;51.972;4.624;2023-02-12T05:34:00;103858.09;;;12.81;61.16
62508;BME280;48556;51.972;4.624;2023-02-12T05:36:28;103857.34;;;12.87;61.09
62508;BME280;48556;51.972;4.624;2023-02-12T05:38:57;103858.16;;;12.85;61.30
62508;BME280;48556;51.972;4.624;2023-02-12T05:41:24;103864.41;;;12.87;61.36
62508;BME280;48556;51.972;4.624;2023-02-12T05:43:51;103858.34;;;12.91;61.21
62508;BME280;48556;51.972;4.624;2023-02-12T05:46:18;103865.31;;;12.89;61.18
62508;BME280;48556;51.972;4.624;2023-02-12T05:48:44;103864.50;;;12.91;61.20
62508;BME280;48556;51.972;4.624;2023-02-12T05:51:12;103869.56;;;12.83;61.39
62508;BME280;48556;51.972;4.624;2023-02-12T05:53:39;103875.81;;;12.86;61.25
62508;BME280;48556;51.972;4.624;2023-02-12T05:56:20;103871.47;;;12.89;61.24
62508;BME280;48556;51.972;4.624;2023-02-12T05:58:50;103868.00;;;12.90;61.33
62508;BME280;48556;51.972;4.624;2023-02-12T06:01:38;103870.44;;;12.82;61.47
62508;BME280;48556;51.972;4.624;2023-02-12T06:04:07;103867.16;;;12.91;61.48
62508;BME280;48556;51.972;4.624;2023-02-12T06:06:36;103860.78;;;12.83;61.76
62508;BME280;48556;51.972;4.624;2023-02-12T06:09:02;103864.44;;;12.88;61.60
62508;BME280;48556;51.972;4.624;2023-02-12T06:11:27;103872.13;;;12.80;61.77
62508;BME280;48556;51.972;4.624;2023-02-12T06:13:53;103865.94;;;12.78;61.87
62508;BME280;48556;51.972;4.624;2023-02-12T06:16:27;103866.06;;;12.83;61.66
62508;BME280;48556;51.972;4.624;2023-02-12T06:18:54;103862.72;;;12.90;61.53
62508;BME280;48556;51.972;4.624;2023-02-12T06:21:22;103876.63;;;12.83;61.64
62508;BME280;48556;51.972;4.624;2023-02-12T06:23:49;103869.34;;;12.74;61.81
62508;BME280;48556;51.972;4.624;2023-02-12T06:26:15;103861.41;;;12.74;61.86
62508;BME280;48556;51.972;4.624;2023-02-12T06:28:41;103857.00;;;12.73;61.82
62508;BME280;48556;51.972;4.624;2023-02-12T06:31:18;103856.88;;;12.69;61.90
62508;BME280;48556;51.972;4.624;2023-02-12T06:33:44;103866.78;;;12.77;61.74
62508;BME280;48556;51.972;4.624;2023-02-12T06:36:10;103865.81;;;12.75;61.73
62508;BME280;48556;51.972;4.624;2023-02-12T06:38:37;103864.81;;;12.70;62.02
62508;BME280;48556;51.972;4.624;2023-02-12T06:41:03;103862.31;;;12.75;61.79
62508;BME280;48556;51.972;4.624;2023-02-12T06:43:29;103869.31;;;12.73;62.05
62508;BME280;48556;51.972;4.624;2023-02-12T06:46:00;103874.59;;;12.73;62.04
62508;BME280;48556;51.972;4.624;2023-02-12T06:48:29;103865.78;;;12.74;61.95
62508;BME280;48556;51.972;4.624;2023-02-12T06:50:55;103868.44;;;12.74;61.87
62508;BME280;48556;51.972;4.624;2023-02-12T06:53:21;103871.94;;;12.73;61.95
62508;BME280;48556;51.972;4.624;2023-02-12T06:55:47;103878.06;;;12.72;61.72
62508;BME280;48556;51.972;4.624;2023-02-12T06:58:12;103870.09;;;12.70;61.79
62508;BME280;48556;51.972;4.624;2023-02-12T07:00:38;103881.59;;;12.72;61.62
62508;BME280;48556;51.972;4.624;2023-02-12T07:03:06;103884.22;;;12.72;61.69
62508;BME280;48556;51.972;4.624;2023-02-12T07:05:31;103892.13;;;12.71;61.69
62508;BME280;48556;51.972;4.624;2023-02-12T07:07:57;103890.38;;;12.71;61.88
62508;BME280;48556;51.972;4.624;2023-02-12T07:10:23;103888.75;;;12.76;61.62
62508;BME280;48556;51.972;4.624;2023-02-12T07:12:48;103886.88;;;12.72;61.71
62508;BME280;48556;51.972;4.624;2023-02-12T07:15:14;103890.44;;;12.73;61.60
62508;BME280;48556;51.972;4.624;2023-02-12T07:17:40;103890.38;;;12.71;61.78
62508;BME280;48556;51.972;4.624;2023-02-12T07:20:06;103893.16;;;12.76;61.75
62508;BME280;48556;51.972;4.624;2023-02-12T07:22:35;103903.63;;;12.73;61.35
62508;BME280;48556;51.972;4.624;2023-02-12T07:25:01;103908.72;;;12.67;61.49
62508;BME280;48556;51.972;4.624;2023-02-12T07:27:26;103907.22;;;12.76;61.50
62508;BME280;48556;51.972;4.624;2023-02-12T07:29:52;103907.63;;;12.60;61.98
62508;BME280;48556;51.972;4.624;2023-02-12T07:32:17;103915.66;;;12.63;61.86
62508;BME280;48556;51.972;4.624;2023-02-12T07:34:43;103912.91;;;12.60;62.12
62508;BME280;48556;51.972;4.624;2023-02-12T07:37:08;103921.13;;;12.69;61.99
62508;BME280;48556;51.972;4.624;2023-02-12T07:39:34;103917.78;;;12.76;61.83
62508;BME280;48556;51.972;4.624;2023-02-12T07:41:59;103917.88;;;12.79;61.78
62508;BME280;48556;51.972;4.624;2023-02-12T07:44:25;103916.06;;;12.77;61.82
62508;BME280;48556;51.972;4.624;2023-02-12T07:46:50;103924.78;;;12.74;62.03
62508;BME280;48556;51.972;4.624;2023-02-12T07:49:18;103924.88;;;12.77;62.00
62508;BME280;48556;51.972;4.624;2023-02-12T07:51:45;103924.91;;;12.79;61.83
62508;BME280;48556;51.972;4.624;2023-02-12T07:54:12;103922.38;;;12.83;61.90
62508;BME280;48556;51.972;4.624;2023-02-12T07:56:39;103927.00;;;12.91;61.63
62508;BME280;48556;51.972;4.624;2023-02-12T07:59:09;103935.00;;;12.94;61.56
62508;BME280;48556;51.972;4.624;2023-02-12T08:01:37;103927.97;;;12.94;61.61
62508;BME280;48556;51.972;4.624;2023-02-12T08:04:05;103916.56;;;12.95;61.57
62508;BME280;48556;51.972;4.624;2023-02-12T08:06:34;103922.72;;;12.96;61.53
62508;BME280;48556;51.972;4.624;2023-02-12T08:09:04;103927.94;;;12.93;61.53
62508;BME280;48556;51.972;4.624;2023-02-12T08:11:33;103926.28;;;12.96;61.37
62508;BME280;48556;51.972;4.624;2023-02-12T08:13:59;103925.63;;;13.05;61.08
62508;BME280;48556;51.972;4.624;2023-02-12T08:16:26;103930.06;;;13.06;60.96
62508;BME280;48556;51.972;4.624;2023-02-12T08:18:54;103927.50;;;13.09;60.53
62508;BME280;48556;51.972;4.624;2023-02-12T08:21:22;103925.72;;;13.08;61.05
62508;BME280;48556;51.972;4.624;2023-02-12T08:23:48;103927.56;;;13.12;60.99
62508;BME280;48556;51.972;4.624;2023-02-12T08:26:24;103928.53;;;13.14;60.92
62508;BME280;48556;51.972;4.624;2023-02-12T08:29:07;103928.72;;;13.22;60.65
62508;BME280;48556;51.972;4.624;2023-02-12T08:31:36;103936.81;;;13.28;60.54
62508;BME280;48556;51.972;4.624;2023-02-12T08:34:03;103941.44;;;13.36;60.46
62508;BME280;48556;51.972;4.624;2023-02-12T08:36:38;103939.69;;;13.36;60.25
62508;BME280;48556;51.972;4.624;2023-02-12T08:39:09;103946.75;;;13.37;60.49
62508;BME280;48556;51.972;4.624;2023-02-12T08:41:35;103949.47;;;13.40;60.38
62508;BME280;48556;51.972;4.624;2023-02-12T08:44:03;103944.19;;;13.40;59.94
62508;BME280;48556;51.972;4.624;2023-02-12T08:46:31;103954.84;;;13.43;59.90
62508;BME280;48556;51.972;4.624;2023-02-12T08:49:08;103957.69;;;13.51;59.49
62508;BME280;48556;51.972;4.624;2023-02-12T08:51:39;103948.94;;;13.54;59.19
62508;BME280;48556;51.972;4.624;2023-02-12T08:54:08;103949.81;;;13.53;58.58
62508;BME280;48556;51.972;4.624;2023-02-12T08:56:35;103954.31;;;13.57;57.87
62508;BME280;48556;51.972;4.624;2023-02-12T08:59:03;103959.31;;;13.46;57.29
62508;BME280;48556;51.972;4.624;2023-02-12T09:01:35;103969.31;;;13.58;56.86
62508;BME280;48556;51.972;4.624;2023-02-12T09:04:04;103965.09;;;13.66;57.10
62508;BME280;48556;51.972;4.624;2023-02-12T09:06:32;103964.31;;;13.70;57.30
62508;BME280;48556;51.972;4.624;2023-02-12T09:08:58;103968.00;;;13.77;57.00
62508;BME280;48556;51.972;4.624;2023-02-12T09:11:27;103965.53;;;13.83;56.84
62508;BME280;48556;51.972;4.624;2023-02-12T09:14:04;103969.97;;;13.85;56.90
62508;BME280;48556;51.972;4.624;2023-02-12T09:16:32;103967.72;;;14.01;56.30
62508;BME280;48556;51.972;4.624;2023-02-12T09:18:59;103974.00;;;14.06;55.30
62508;BME280;48556;51.972;4.624;2023-02-12T09:21:26;103976.53;;;14.00;55.69
62508;BME280;48556;51.972;4.624;2023-02-12T09:23:52;103968.75;;;14.08;55.38
62508;BME280;48556;51.972;4.624;2023-02-12T09:26:20;103970.78;;;14.19;54.94
62508;BME280;48556;51.972;4.624;2023-02-12T09:28:47;103972.59;;;14.21;54.31
62508;BME280;48556;51.972;4.624;2023-02-12T09:31:20;103978.06;;;14.30;54.35
62508;BME280;48556;51.972;4.624;2023-02-12T09:33:47;103984.00;;;14.18;55.26
62508;BME280;48556;51.972;4.624;2023-02-12T09:36:15;103987.56;;;14.20;55.15
62508;BME280;48556;51.972;4.624;2023-02-12T09:38:42;103985.97;;;14.28;55.07
62508;BME280;48556;51.972;4.624;2023-02-12T09:43:52;103979.81;;;14.28;54.69
62508;BME280;48556;51.972;4.624;2023-02-12T09:49:09;103980.88;;;14.36;53.32
62508;BME280;48556;51.972;4.624;2023-02-12T09:51:38;103970.97;;;14.29;52.49
62508;BME280;48556;51.972;4.624;2023-02-12T09:54:17;103986.16;;;14.36;51.56
62508;BME280;48556;51.972;4.624;2023-02-12T09:56:52;103978.28;;;14.39;51.12
62508;BME280;48556;51.972;4.624;2023-02-12T09:59:36;103978.88;;;14.26;50.63
62508;BME280;48556;51.972;4.624;2023-02-12T10:02:15;103982.59;;;14.35;50.15
62508;BME280;48556;51.972;4.624;2023-02-12T10:04:42;103974.97;;;14.49;49.81
62508;BME280;48556;51.972;4.624;2023-02-12T10:07:30;103976.81;;;14.12;49.86
62508;BME280;48556;51.972;4.624;2023-02-12T10:15:36;103983.53;;;14.36;49.48
62508;BME280;48556;51.972;4.624;2023-02-12T10:21:37;103969.31;;;13.58;49.85
62508;BME280;48556;51.972;4.624;2023-02-12T10:27:19;103975.81;;;13.71;49.35
62508;BME280;48556;51.972;4.624;2023-02-12T10:29:50;103985.13;;;13.91;49.01
62508;BME280;48556;51.972;4.624;2023-02-12T10:32:29;103978.91;;;14.29;48.13
62508;BME280;48556;51.972;4.624;2023-02-12T10:34:57;103974.47;;;13.88;47.87
62508;BME280;48556;51.972;4.624;2023-02-12T10:37:39;103971.50;;;13.76;48.74
62508;BME280;48556;51.972;4.624;2023-02-12T10:42:51;103966.28;;;13.77;48.68
62508;BME280;48556;51.972;4.624;2023-02-12T10:45:24;103974.69;;;13.97;48.10
62508;BME280;48556;51.972;4.624;2023-02-12T10:47:59;103972.84;;;13.95;48.41
62508;BME280;48556;51.972;4.624;2023-02-12T10:53:04;103971.72;;;14.22;47.74
62508;BME280;48556;51.972;4.624;2023-02-12T10:55:34;103974.44;;;14.25;47.12
62508;BME280;48556;51.972;4.624;2023-02-12T10:58:19;103975.19;;;14.59;46.75
62508;BME280;48556;51.972;4.624;2023-02-12T11:00:45;103980.88;;;13.63;48.13
62508;BME280;48556;51.972;4.624;2023-02-12T11:05:51;103969.31;;;13.58;48.32
62508;BME280;48556;51.972;4.624;2023-02-12T11:08:35;103973.13;;;14.06;47.77
62508;BME280;48556;51.972;4.624;2023-02-12T11:11:25;103979.47;;;14.12;47.52
62508;BME280;48556;51.972;4.624;2023-02-12T11:14:21;103970.88;;;14.24;47.63
62508;BME280;48556;51.972;4.624;2023-02-12T11:16:53;103965.91;;;14.38;47.23
62508;BME280;48556;51.972;4.624;2023-02-12T11:19:27;103962.94;;;14.24;47.54
62508;BME280;48556;51.972;4.624;2023-02-12T11:22:13;103960.09;;;14.55;47.04
62508;BME280;48556;51.972;4.624;2023-02-12T11:24:44;103960.94;;;14.12;47.39
62508;BME280;48556;51.972;4.624;2023-02-12T11:27:24;103973.56;;;14.26;47.32
62508;BME280;48556;51.972;4.624;2023-02-12T11:30:17;103970.38;;;14.41;47.14
62508;BME280;48556;51.972;4.624;2023-02-12T11:32:46;103972.78;;;14.30;47.47
62508;BME280;48556;51.972;4.624;2023-02-12T11:35:17;103973.72;;;13.94;47.95
62508;BME280;48556;51.972;4.624;2023-02-12T11:37:55;103967.97;;;13.75;48.00
62508;BME280;48556;51.972;4.624;2023-02-12T11:40:27;103967.59;;;13.60;48.23
62508;BME280;48556;51.972;4.624;2023-02-12T11:42:59;103959.47;;;13.52;48.77
62508;BME280;48556;51.972;4.624;2023-02-12T11:45:41;103959.75;;;13.31;49.05
62508;BME280;48556;51.972;4.624;2023-02-12T11:48:34;103966.06;;;13.03;49.74
62508;BME280;48556;51.972;4.624;2023-02-12T11:51:06;103964.03;;;13.24;49.23
62508;BME280;48556;51.972;4.624;2023-02-12T11:53:41;103957.69;;;13.88;48.14
62508;BME280;48556;51.972;4.624;2023-02-12T11:56:14;103961.19;;;13.87;48.23
62508;BME280;48556;51.972;4.624;2023-02-12T11:58:40;103949.13;;;13.98;48.12
62508;BME280;48556;51.972;4.624;2023-02-12T12:01:21;103953.31;;;13.90;48.36
62508;BME280;48556;51.972;4.624;2023-02-12T12:04:07;103952.88;;;14.08;48.68
62508;BME280;48556;51.972;4.624;2023-02-12T12:06:50;103944.28;;;14.16;48.36
62508;BME280;48556;51.972;4.624;2023-02-12T12:09:36;103949.81;;;13.89;48.83
62508;BME280;48556;51.972;4.624;2023-02-12T12:12:30;103956.66;;;14.19;48.37
62508;BME280;48556;51.972;4.624;2023-02-12T12:15:25;103951.53;;;14.27;47.46
62508;BME280;48556;51.972;4.624;2023-02-12T12:18:30;103946.53;;;14.39;47.11
62508;BME280;48556;51.972;4.624;2023-02-12T12:21:23;103944.16;;;14.53;47.81
62508;BME280;48556;51.972;4.624;2023-02-12T12:26:55;103944.00;;;13.67;48.61
62508;BME280;48556;51.972;4.624;2023-02-12T12:29:44;103934.91;;;13.93;48.44
62508;BME280;48556;51.972;4.624;2023-02-12T12:32:20;103938.78;;;13.71;48.73
62508;BME280;48556;51.972;4.624;2023-02-12T12:34:47;103937.47;;;13.90;47.98
62508;BME280;48556;51.972;4.624;2023-02-12T12:38:06;103934.66;;;13.45;48.79
62508;BME280;48556;51.972;4.624;2023-02-12T12:40:55;103932.75;;;13.40;49.08
62508;BME280;48556;51.972;4.624;2023-02-12T12:54:33;103924.31;;;13.56;49.37
62508;BME280;48556;51.972;4.624;2023-02-12T13:11:05;103909.84;;;13.40;50.23
62508;BME280;48556;51.972;4.624;2023-02-12T13:13:45;103902.88;;;13.44;50.25
62508;BME280;48556;51.972;4.624;2023-02-12T13:22:05;103901.53;;;13.61;49.55
62508;BME280;48556;51.972;4.624;2023-02-12T13:28:41;103896.69;;;13.43;50.20
62508;BME280;48556;51.972;4.624;2023-02-12T13:31:29;103892.03;;;13.34;50.56
62508;BME280;48556;51.972;4.624;2023-02-12T13:34:22;103881.03;;;13.51;50.04
62508;BME280;48556;51.972;4.624;2023-02-12T13:37:24;103883.00;;;13.60;50.23
62508;BME280;48556;51.972;4.624;2023-02-12T13:40:32;103903.03;;;13.50;50.18
62508;BME280;48556;51.972;4.624;2023-02-12T13:47:05;103878.22;;;13.11;50.78
62508;BME280;48556;51.972;4.624;2023-02-12T13:57:22;103883.69;;;13.18;51.14
62508;BME280;48556;51.972;4.624;2023-02-12T14:07:04;103862.41;;;13.46;50.92
62508;BME280;48556;51.972;4.624;2023-02-12T14:15:53;103854.63;;;13.18;52.08
62508;BME280;48556;51.972;4.624;2023-02-12T14:18:47;103865.75;;;13.39;51.38
62508;BME280;48556;51.972;4.624;2023-02-12T14:21:52;103859.28;;;13.28;51.96
62508;BME280;48556;51.972;4.624;2023-02-12T14:27:28;103858.44;;;13.29;51.40
62508;BME280;48556;51.972;4.624;2023-02-12T14:30:35;103854.81;;;13.25;51.67
62508;BME280;48556;51.972;4.624;2023-02-12T14:36:11;103847.41;;;13.10;51.87
62508;BME280;48556;51.972;4.624;2023-02-12T14:45:45;103853.72;;;12.83;52.33
62508;BME280;48556;51.972;4.624;2023-02-12T14:49:15;103845.19;;;12.92;52.19
62508;BME280;48556;51.972;4.624;2023-02-12T14:58:34;103840.13;;;12.68;52.33
62508;BME280;48556;51.972;4.624;2023-02-12T15:01:39;103845.94;;;12.55;52.75
62508;BME280;48556;51.972;4.624;2023-02-12T15:04:38;103843.41;;;12.93;51.50
62508;BME280;48556;51.972;4.624;2023-02-12T15:07:41;103841.56;;;13.24;50.51
62508;BME280;48556;51.972;4.624;2023-02-12T15:10:39;103836.03;;;13.48;50.23
62508;BME280;48556;51.972;4.624;2023-02-12T15:13:38;103835.09;;;13.46;50.39
62508;BME280;48556;51.972;4.624;2023-02-12T15:27:06;103836.69;;;13.39;50.60
62508;BME280;48556;51.972;4.624;2023-02-12T15:30:24;103834.72;;;12.97;51.84
62508;BME280;48556;51.972;4.624;2023-02-12T15:33:04;103828.91;;;13.10;51.05
62508;BME280;48556;51.972;4.624;2023-02-12T15:35:44;103838.19;;;12.94;50.74
62508;BME280;48556;51.972;4.624;2023-02-12T15:38:21;103835.59;;;12.64;51.21
62508;BME280;48556;51.972;4.624;2023-02-12T15:40:56;103841.38;;;12.81;50.43
62508;BME280;48556;51.972;4.624;2023-02-12T15:43:26;103838.34;;;12.67;50.97
62508;BME280;48556;51.972;4.624;2023-02-12T15:45:53;103833.06;;;13.01;50.25
62508;BME280;48556;51.972;4.624;2023-02-12T15:48:21;103829.94;;;13.17;49.64
62508;BME280;48556;51.972;4.624;2023-02-12T15:50:55;103821.75;;;13.40;49.37
62508;BME280;48556;51.972;4.624;2023-02-12T15:53:41;103821.44;;;13.65;49.27
62508;BME280;48556;51.972;4.624;2023-02-12T15:56:17;103823.38;;;13.74;48.88
62508;BME280;48556;51.972;4.624;2023-02-12T15:59:03;103819.84;;;13.72;48.55
62508;BME280;48556;51.972;4.624;2023-02-12T16:01:31;103823.03;;;13.59;49.22